createdAt,value
2023-04-11T00:00:24.289Z,0.00
2023-04-11T00:01:24.349Z,0.00
2023-04-11T00:02:24.482Z,0.00
2023-04-11T00:03:24.681Z,0.00
2023-04-11T00:04:24.528Z,0.00
2023-04-11T00:05:24.419Z,0.00
2023-04-11T00:06:24.449Z,0.00
2023-04-11T00:07:24.475Z,0.00
2023-04-11T00:08:24.504Z,0.00
2023-04-11T00:09:24.524Z,0.00
2023-04-11T00:10:24.570Z,0.00
2023-04-11T00:11:24.576Z,0.00
2023-04-11T00:12:24.712Z,0.00
2023-04-11T00:13:24.639Z,0.00
2023-04-11T00:14:24.657Z,0.00
2023-04-11T00:15:24.696Z,0.00
2023-04-11T00:16:24.736Z,0.00
2023-04-11T00:17:24.800Z,0.00
2023-04-11T00:18:24.766Z,0.00
2023-04-11T00:19:24.785Z,0.00
2023-04-11T00:20:24.814Z,0.00
2023-04-11T00:21:24.839Z,0.00
2023-04-11T00:22:24.869Z,0.00
2023-04-11T00:23:24.890Z,0.00
2023-04-11T00:24:24.919Z,0.00
2023-04-11T00:25:24.943Z,0.00
2023-04-11T00:26:24.972Z,0.00
2023-04-11T00:27:25.000Z,0.00
2023-04-11T00:28:25.044Z,0.00
2023-04-11T00:29:25.048Z,0.00
2023-04-11T00:30:25.085Z,0.00
2023-04-11T00:31:25.134Z,0.00
2023-04-11T00:32:25.165Z,0.00
2023-04-11T00:33:25.157Z,0.00
2023-04-11T00:34:25.184Z,0.00
2023-04-11T00:35:25.204Z,0.00
2023-04-11T00:36:25.330Z,0.00
2023-04-11T00:37:25.255Z,0.00
2023-04-11T00:38:25.288Z,0.00
2023-04-11T00:39:25.310Z,0.00
2023-04-11T00:40:25.380Z,0.00
2023-04-11T00:41:25.364Z,0.00
2023-04-11T00:42:25.544Z,0.00
2023-04-11T00:43:25.417Z,0.00
2023-04-11T00:44:25.473Z,0.00
2023-04-11T00:45:25.467Z,0.00
2023-04-11T00:46:25.606Z,0.00
2023-04-11T00:47:25.546Z,0.00
2023-04-11T00:48:25.547Z,0.00
2023-04-11T00:49:25.569Z,0.00
2023-04-11T00:50:25.595Z,0.00
2023-04-11T00:51:25.631Z,0.00
2023-04-11T00:52:25.647Z,0.00
2023-04-11T00:53:25.672Z,0.00
2023-04-11T00:54:25.703Z,0.00
2023-04-11T00:55:25.732Z,0.00
2023-04-11T00:56:25.762Z,0.00
2023-04-11T00:57:25.781Z,0.00
2023-04-11T00:58:25.811Z,0.00
2023-04-11T00:59:25.832Z,0.00
2023-04-11T01:00:25.882Z,0.00
2023-04-11T01:01:25.897Z,0.00
2023-04-11T01:02:26.024Z,0.00
2023-04-11T01:03:26.087Z,0.00
2023-04-11T01:04:25.965Z,0.00
2023-04-11T01:05:25.990Z,0.00
2023-04-11T01:06:26.019Z,0.00
2023-04-11T01:07:26.044Z,0.00
2023-04-11T01:08:26.080Z,0.00
2023-04-11T01:09:26.097Z,0.00
2023-04-11T01:10:26.134Z,0.00
2023-04-11T01:11:26.169Z,0.00
2023-04-11T01:12:26.182Z,0.00
2023-04-11T01:13:26.214Z,0.00
2023-04-11T01:14:26.236Z,0.00
2023-04-11T01:15:26.262Z,0.00
2023-04-11T01:16:26.413Z,0.00
2023-04-11T01:17:26.325Z,0.00
2023-04-11T01:18:26.338Z,0.00
2023-04-11T01:19:26.366Z,0.00
2023-04-11T01:20:26.397Z,0.00
2023-04-11T01:21:26.418Z,0.00
2023-04-11T01:22:26.445Z,0.00
2023-04-11T01:23:26.480Z,0.00
2023-04-11T01:24:26.500Z,0.00
2023-04-11T01:25:26.525Z,0.00
2023-04-11T01:26:26.551Z,0.00
2023-04-11T01:27:26.590Z,0.00
2023-04-11T01:28:26.613Z,0.00
2023-04-11T01:29:26.631Z,0.00
2023-04-11T01:30:26.737Z,0.00
2023-04-11T01:31:26.688Z,0.00
2023-04-11T01:32:26.886Z,0.00
2023-04-11T01:33:26.734Z,0.00
2023-04-11T01:34:26.759Z,0.00
2023-04-11T01:35:26.784Z,0.00
2023-04-11T01:36:26.811Z,0.00
2023-04-11T01:37:26.834Z,0.00
2023-04-11T01:38:26.864Z,0.00
2023-04-11T01:39:26.889Z,0.00
2023-04-11T01:40:26.922Z,0.00
2023-04-11T01:41:26.947Z,0.00
2023-04-11T01:42:26.965Z,0.00
2023-04-11T01:43:26.991Z,0.00
2023-04-11T01:44:27.028Z,0.00
2023-04-11T01:45:27.040Z,0.00
2023-04-11T01:46:27.071Z,0.00
2023-04-11T01:47:27.122Z,0.00
2023-04-11T01:48:27.168Z,0.00
2023-04-11T01:49:27.145Z,0.00
2023-04-11T01:50:27.227Z,0.00
2023-04-11T01:51:27.210Z,0.00
2023-04-11T01:52:27.226Z,0.00
2023-04-11T01:53:27.247Z,0.00
2023-04-11T01:54:27.279Z,0.00
2023-04-11T01:55:27.304Z,0.00
2023-04-11T01:56:27.326Z,0.00
2023-04-11T01:57:27.356Z,0.00
2023-04-11T01:58:27.377Z,0.00
2023-04-11T01:59:27.407Z,0.00
2023-04-11T02:00:27.430Z,0.00
2023-04-11T02:01:27.497Z,0.00
2023-04-11T02:02:27.660Z,0.00
2023-04-11T02:03:27.649Z,0.00
2023-04-11T02:04:27.599Z,0.00
2023-04-11T02:05:27.556Z,0.00
2023-04-11T02:06:27.591Z,0.00
2023-04-11T02:07:27.612Z,0.00
2023-04-11T02:08:27.652Z,0.00
2023-04-11T02:09:27.661Z,0.00
2023-04-11T02:10:27.735Z,0.00
2023-04-11T02:11:27.750Z,0.00
2023-04-11T02:12:27.750Z,0.00
2023-04-11T02:13:27.807Z,0.00
2023-04-11T02:14:27.795Z,0.00
2023-04-11T02:15:27.867Z,0.00
2023-04-11T02:16:27.845Z,0.00
2023-04-11T02:17:27.900Z,0.00
2023-04-11T02:18:27.895Z,0.00
2023-04-11T02:19:27.920Z,0.00
2023-04-11T02:20:27.978Z,0.00
2023-04-11T02:21:27.971Z,0.00
2023-04-11T02:22:28.009Z,0.00
2023-04-11T02:23:28.024Z,0.00
2023-04-11T02:24:28.055Z,0.00
2023-04-11T02:25:28.075Z,0.00
2023-04-11T02:26:28.102Z,0.00
2023-04-11T02:27:28.128Z,0.00
2023-04-11T02:28:28.153Z,0.00
2023-04-11T02:29:28.181Z,0.00
2023-04-11T02:30:28.214Z,0.00
2023-04-11T02:31:28.265Z,0.00
2023-04-11T02:32:28.291Z,0.00
2023-04-11T02:33:28.285Z,0.00
2023-04-11T02:34:28.313Z,0.00
2023-04-11T02:35:28.347Z,0.00
2023-04-11T02:36:28.381Z,0.00
2023-04-11T02:37:28.384Z,0.00
2023-04-11T02:38:28.435Z,0.00
2023-04-11T02:39:28.437Z,0.00
2023-04-11T02:40:28.467Z,0.00
2023-04-11T02:41:28.509Z,0.00
2023-04-11T02:42:28.525Z,0.00
2023-04-11T02:43:28.542Z,0.00
2023-04-11T02:44:28.568Z,0.00
2023-04-11T02:45:28.598Z,0.00
2023-04-11T02:46:28.623Z,0.00
2023-04-11T02:47:28.664Z,0.00
2023-04-11T02:48:28.672Z,0.00
2023-04-11T02:49:28.704Z,0.00
2023-04-11T02:50:28.742Z,0.00
2023-04-11T02:51:28.747Z,0.00
2023-04-11T02:52:28.799Z,0.00
2023-04-11T02:53:28.803Z,0.00
2023-04-11T02:54:28.835Z,0.00
2023-04-11T02:55:28.854Z,0.00
2023-04-11T02:56:28.879Z,0.00
2023-04-11T02:57:28.907Z,0.00
2023-04-11T02:58:28.929Z,0.00
2023-04-11T03:00:36.559Z,0.00
2023-04-11T03:01:36.651Z,0.00
2023-04-11T03:02:36.834Z,0.00
2023-04-11T03:03:36.700Z,0.00
2023-04-11T03:04:36.755Z,0.00
2023-04-11T03:05:36.691Z,0.00
2023-04-11T03:06:36.715Z,0.00
2023-04-11T03:07:36.759Z,0.00
2023-04-11T03:08:36.771Z,0.00
2023-04-11T03:09:36.792Z,0.00
2023-04-11T03:10:36.829Z,0.00
2023-04-11T03:11:36.844Z,0.00
2023-04-11T03:12:36.872Z,0.00
2023-04-11T03:13:36.904Z,0.00
2023-04-11T03:14:36.927Z,0.00
2023-04-11T03:15:36.990Z,0.00
2023-04-11T03:16:36.975Z,0.00
2023-04-11T03:17:37.033Z,0.00
2023-04-11T03:18:37.027Z,0.00
2023-04-11T03:19:37.051Z,0.00
2023-04-11T03:20:37.081Z,0.00
2023-04-11T03:21:37.116Z,0.00
2023-04-11T03:22:37.136Z,0.00
2023-04-11T03:23:37.178Z,0.00
2023-04-11T03:24:37.187Z,0.00
2023-04-11T03:25:37.210Z,0.00
2023-04-11T03:26:37.240Z,0.00
2023-04-11T03:27:37.261Z,0.00
2023-04-11T03:28:37.288Z,0.00
2023-04-11T03:29:37.318Z,0.00
2023-04-11T03:30:37.345Z,0.00
2023-04-11T03:31:37.396Z,0.00
2023-04-11T03:32:37.440Z,0.00
2023-04-11T03:33:37.422Z,0.00
2023-04-11T03:34:37.448Z,0.00
2023-04-11T03:35:37.489Z,0.00
2023-04-11T03:36:37.526Z,0.00
2023-04-11T03:37:37.523Z,0.00
2023-04-11T03:38:37.562Z,0.00
2023-04-11T03:39:37.601Z,0.00
2023-04-11T03:40:37.604Z,0.00
2023-04-11T03:41:37.632Z,0.00
2023-04-11T03:42:37.658Z,0.00
2023-04-11T03:43:37.693Z,0.00
2023-04-11T03:44:37.736Z,0.00
2023-04-11T03:45:37.735Z,0.00
2023-04-11T03:46:37.794Z,0.00
2023-04-11T03:47:37.869Z,0.00
2023-04-11T03:48:37.820Z,0.00
2023-04-11T03:49:37.838Z,0.00
2023-04-11T03:50:37.862Z,0.00
2023-04-11T03:51:37.887Z,0.00
2023-04-11T03:52:37.914Z,0.00
2023-04-11T03:53:37.943Z,0.00
2023-04-11T03:54:37.963Z,0.00
2023-04-11T03:55:38.011Z,0.00
2023-04-11T03:56:38.013Z,0.00
2023-04-11T03:57:38.053Z,0.00
2023-04-11T03:58:38.066Z,0.00
2023-04-11T03:59:38.089Z,0.00
2023-04-11T04:00:38.115Z,0.00
2023-04-11T04:01:38.282Z,0.00
2023-04-11T04:02:38.271Z,0.00
2023-04-11T04:03:38.505Z,0.00
2023-04-11T04:04:38.332Z,0.00
2023-04-11T04:05:38.249Z,0.00
2023-04-11T04:06:38.270Z,0.00
2023-04-11T04:07:38.293Z,0.00
2023-04-11T04:08:38.320Z,0.00
2023-04-11T04:09:42.381Z,0.00
2023-04-11T04:10:38.372Z,0.00
2023-04-11T04:11:38.533Z,0.00
2023-04-11T04:12:38.422Z,0.00
2023-04-11T04:13:38.447Z,0.00
2023-04-11T04:14:38.478Z,0.00
2023-04-11T04:15:38.497Z,0.00
2023-04-11T04:16:38.604Z,0.00
2023-04-11T04:17:38.578Z,0.00
2023-04-11T04:18:38.575Z,0.00
2023-04-11T04:19:38.599Z,0.00
2023-04-11T04:20:38.650Z,4.00
2023-04-11T04:21:38.657Z,4.00
2023-04-11T04:22:38.680Z,4.00
2023-04-11T04:23:38.713Z,4.00
2023-04-11T04:24:38.743Z,0.00
2023-04-11T04:25:38.755Z,4.00
2023-04-11T04:26:38.783Z,4.00
2023-04-11T04:27:38.824Z,4.00
2023-04-11T04:28:38.833Z,8.00
2023-04-11T04:29:39.100Z,8.00
2023-04-11T04:30:38.897Z,8.00
2023-04-11T04:31:38.928Z,8.00
2023-04-11T04:32:38.941Z,16.00
2023-04-11T04:33:38.961Z,16.00
2023-04-11T04:34:38.988Z,20.00
2023-04-11T04:35:39.023Z,24.00
2023-04-11T04:36:39.038Z,36.00
2023-04-11T04:37:39.062Z,56.00
2023-04-11T04:38:39.091Z,68.00
2023-04-11T04:39:39.124Z,72.00
2023-04-11T04:40:39.142Z,72.00
2023-04-11T04:41:39.186Z,80.00
2023-04-11T04:42:39.192Z,92.00
2023-04-11T04:43:39.240Z,96.00
2023-04-11T04:44:39.244Z,124.00
2023-04-11T04:45:39.275Z,164.00
2023-04-11T04:46:39.303Z,188.00
2023-04-11T04:47:39.369Z,176.00
2023-04-11T04:48:39.383Z,148.00
2023-04-11T04:49:39.373Z,164.00
2023-04-11T04:50:39.425Z,192.00
2023-04-11T04:51:39.423Z,196.00
2023-04-11T04:52:39.452Z,200.00
2023-04-11T04:53:39.475Z,212.00
2023-04-11T04:54:39.504Z,208.00
2023-04-11T04:55:39.539Z,212.00
2023-04-11T04:56:39.570Z,200.00
2023-04-11T04:57:39.646Z,200.00
2023-04-11T04:58:39.605Z,220.00
2023-04-11T04:59:39.653Z,240.00
2023-04-11T05:00:39.656Z,260.00
2023-04-11T05:01:40.033Z,236.00
2023-04-11T05:02:39.896Z,232.00
2023-04-11T05:03:39.863Z,240.00
2023-04-11T05:04:39.760Z,280.00
2023-04-11T05:05:39.783Z,316.00
2023-04-11T05:06:39.911Z,376.00
2023-04-11T05:07:39.838Z,448.00
2023-04-11T05:08:39.867Z,528.00
2023-04-11T05:09:39.887Z,576.00
2023-04-11T05:10:39.919Z,600.00
2023-04-11T05:11:39.938Z,628.00
2023-04-11T05:12:39.968Z,640.00
2023-04-11T05:13:39.990Z,604.00
2023-04-11T05:14:40.019Z,552.00
2023-04-11T05:15:40.073Z,532.00
2023-04-11T05:16:40.163Z,572.00
2023-04-11T05:17:40.126Z,616.00
2023-04-11T05:18:40.128Z,688.00
2023-04-11T05:19:40.150Z,712.00
2023-04-11T05:20:40.183Z,712.00
2023-04-11T05:21:40.208Z,712.00
2023-04-11T05:22:40.225Z,688.00
2023-04-11T05:23:40.255Z,704.00
2023-04-11T05:24:40.288Z,752.00
2023-04-11T05:25:40.333Z,872.00
2023-04-11T05:26:40.332Z,1020.00
2023-04-11T05:27:40.352Z,1176.00
2023-04-11T05:28:40.379Z,1340.00
2023-04-11T05:29:40.430Z,1624.00
2023-04-11T05:30:40.476Z,1828.00
2023-04-11T05:31:40.488Z,1952.00
2023-04-11T05:32:40.514Z,2056.00
2023-04-11T05:33:40.514Z,2060.00
2023-04-11T05:34:40.534Z,1876.00
2023-04-11T05:35:40.594Z,1580.00
2023-04-11T05:36:40.592Z,1612.00
2023-04-11T05:37:40.612Z,1840.00
2023-04-11T05:38:40.640Z,2092.00
2023-04-11T05:39:40.667Z,2228.00
2023-04-11T05:40:40.691Z,2432.00
2023-04-11T05:41:40.723Z,2580.00
2023-04-11T05:42:40.749Z,2588.00
2023-04-11T05:43:40.774Z,2032.00
2023-04-11T05:44:40.796Z,1904.00
2023-04-11T05:46:06.039Z,1908.00
2023-04-11T05:47:06.045Z,1760.00
2023-04-11T05:48:06.103Z,1644.00
2023-04-11T05:49:06.078Z,2064.00
2023-04-11T05:50:06.121Z,2036.00
2023-04-11T05:51:06.143Z,2312.00
2023-04-11T05:52:06.163Z,2852.00
2023-04-11T05:53:06.192Z,3732.00
2023-04-11T05:54:06.207Z,3980.00
2023-04-11T05:55:06.240Z,3476.00
2023-04-11T05:56:06.265Z,3572.00
2023-04-11T05:57:06.281Z,3768.00
2023-04-11T05:58:06.310Z,4284.00
2023-04-11T05:59:06.337Z,4108.00
2023-04-11T06:00:06.363Z,3012.00
2023-04-11T06:01:06.389Z,2960.00
2023-04-11T06:02:06.466Z,3388.00
2023-04-11T06:03:06.524Z,2944.00
2023-04-11T06:04:06.635Z,2416.00
2023-04-11T06:05:06.538Z,2408.00
2023-04-11T06:06:06.521Z,1948.00
2023-04-11T06:07:06.543Z,1588.00
2023-04-11T06:08:06.573Z,1572.00
2023-04-11T06:09:06.595Z,1448.00
2023-04-11T06:10:06.628Z,1624.00
2023-04-11T06:11:06.651Z,2124.00
2023-04-11T06:12:06.671Z,2512.00
2023-04-11T06:13:06.700Z,2276.00
2023-04-11T06:14:06.728Z,2060.00
2023-04-11T06:15:06.751Z,2628.00
2023-04-11T06:16:06.865Z,3112.00
2023-04-11T06:17:06.803Z,2856.00
2023-04-11T06:18:06.864Z,2336.00
2023-04-11T06:19:06.879Z,1932.00
2023-04-11T06:20:06.895Z,2036.00
2023-04-11T06:21:06.912Z,2328.00
2023-04-11T06:22:06.938Z,2888.00
2023-04-11T06:23:06.963Z,3372.00
2023-04-11T06:24:07.001Z,3912.00
2023-04-11T06:25:07.021Z,4448.00
2023-04-11T06:26:07.045Z,5432.00
2023-04-11T06:27:07.066Z,6632.00
2023-04-11T06:28:07.107Z,5484.00
2023-04-11T06:29:07.129Z,3100.00
2023-04-11T06:30:07.150Z,2000.00
2023-04-11T06:31:07.253Z,2108.00
2023-04-11T06:32:07.258Z,2248.00
2023-04-11T06:33:07.279Z,2484.00
2023-04-11T06:34:07.254Z,2884.00
2023-04-11T06:35:07.299Z,3708.00
2023-04-11T06:36:07.325Z,5840.00
2023-04-11T06:37:07.331Z,9516.00
2023-04-11T06:38:07.357Z,9380.00
2023-04-11T06:39:07.384Z,6692.00
2023-04-11T06:40:07.413Z,4888.00
2023-04-11T06:41:07.436Z,4040.00
2023-04-11T06:42:07.470Z,3736.00
2023-04-11T06:43:07.489Z,3848.00
2023-04-11T06:44:07.602Z,5112.00
2023-04-11T06:45:07.546Z,7636.00
2023-04-11T06:46:07.603Z,8668.00
2023-04-11T06:47:07.635Z,8452.00
2023-04-11T06:48:07.700Z,6928.00
2023-04-11T06:49:07.658Z,7440.00
2023-04-11T06:50:07.693Z,5712.00
2023-04-11T06:51:07.925Z,5904.00
2023-04-11T06:52:07.750Z,5956.00
2023-04-11T06:53:07.768Z,5464.00
2023-04-11T06:54:07.791Z,7076.00
2023-04-11T06:55:07.819Z,9360.00
2023-04-11T06:56:07.846Z,10088.00
2023-04-11T06:57:07.879Z,7384.00
2023-04-11T06:58:07.894Z,6696.00
2023-04-11T06:59:07.920Z,6996.00
2023-04-11T07:00:07.960Z,7876.00
2023-04-11T07:01:07.974Z,9040.00
2023-04-11T07:02:08.138Z,9108.00
2023-04-11T07:03:08.218Z,9224.00
2023-04-11T07:04:08.200Z,11052.00
2023-04-11T07:05:08.090Z,16256.00
2023-04-11T07:06:08.114Z,13672.00
2023-04-11T07:07:08.157Z,13512.00
2023-04-11T07:08:08.167Z,10468.00
2023-04-11T07:09:08.196Z,15692.00
2023-04-11T07:10:08.217Z,15540.00
2023-04-11T07:11:08.243Z,12640.00
2023-04-11T07:12:08.272Z,14024.00
2023-04-11T07:13:08.300Z,12828.00
2023-04-11T07:14:08.326Z,12660.00
2023-04-11T07:15:08.354Z,11932.00
2023-04-11T07:16:08.395Z,10832.00
2023-04-11T07:17:08.415Z,11132.00
2023-04-11T07:18:08.515Z,10548.00
2023-04-11T07:19:08.462Z,14724.00
2023-04-11T07:20:08.493Z,14108.00
2023-04-11T07:21:08.518Z,14504.00
2023-04-11T07:22:08.550Z,15852.00
2023-04-11T07:23:08.598Z,14224.00
2023-04-11T07:24:08.605Z,14524.00
2023-04-11T07:25:08.638Z,15504.00
2023-04-11T07:26:08.667Z,9516.00
2023-04-11T07:27:08.693Z,9548.00
2023-04-11T07:28:08.720Z,8636.00
2023-04-11T07:29:11.005Z,10948.00
2023-04-11T07:30:08.791Z,13880.00
2023-04-11T07:31:08.853Z,8616.00
2023-04-11T07:32:08.836Z,11708.00
2023-04-11T07:33:08.877Z,10936.00
2023-04-11T07:34:08.898Z,14328.00
2023-04-11T07:35:08.934Z,14232.00
2023-04-11T07:36:08.988Z,8640.00
2023-04-11T07:37:08.976Z,8436.00
2023-04-11T07:38:09.006Z,10476.00
2023-04-11T07:39:09.244Z,18176.00
2023-04-11T07:40:09.062Z,18464.00
2023-04-11T07:41:09.098Z,20480.00
2023-04-11T07:42:09.121Z,20448.00
2023-04-11T07:43:09.146Z,10980.00
2023-04-11T07:44:09.186Z,8840.00
2023-04-11T07:45:09.206Z,10228.00
2023-04-11T07:46:09.256Z,22464.00
2023-04-11T07:47:09.271Z,13312.00
2023-04-11T07:48:09.312Z,22752.00
2023-04-11T07:49:09.330Z,19072.00
2023-04-11T07:50:09.356Z,23936.00
2023-04-11T07:51:09.390Z,23104.00
2023-04-11T07:52:09.810Z,8988.00
2023-04-11T07:53:09.442Z,12552.00
2023-04-11T07:54:09.541Z,12960.00
2023-04-11T07:55:09.533Z,33728.00
2023-04-11T07:56:09.534Z,20416.00
2023-04-11T07:57:09.571Z,11552.00
2023-04-11T07:58:09.604Z,27648.00
2023-04-11T07:59:09.625Z,8712.00
2023-04-11T08:00:11.410Z,33600.00
2023-04-11T08:01:09.716Z,44768.00
2023-04-11T08:02:09.841Z,15116.00
2023-04-11T08:03:10.034Z,39104.00
2023-04-11T08:04:09.921Z,22016.00
2023-04-11T08:05:09.932Z,14412.00
2023-04-11T08:06:09.848Z,10276.00
2023-04-11T08:07:09.864Z,13916.00
2023-04-11T08:08:09.902Z,59328.00
2023-04-11T08:09:09.926Z,63456.00
2023-04-11T08:10:09.960Z,21984.00
2023-04-11T08:11:10.015Z,62656.00
2023-04-11T08:12:10.031Z,44480.00
2023-04-11T08:13:10.050Z,10744.00
2023-04-11T08:14:10.102Z,67200.00
2023-04-11T08:15:10.123Z,68256.00
2023-04-11T08:16:10.182Z,66912.00
2023-04-11T08:17:21.146Z,9868.00
2023-04-11T08:18:12.263Z,14184.00
2023-04-11T08:19:10.239Z,9672.00
2023-04-11T08:20:10.271Z,8868.00
2023-04-11T08:21:10.308Z,62656.00
2023-04-11T08:22:10.336Z,6776.00
2023-04-11T08:23:10.369Z,9112.00
2023-04-11T08:24:10.407Z,11672.00
2023-04-11T08:25:10.427Z,8940.00
2023-04-11T08:26:10.464Z,8704.00
2023-04-11T08:27:10.607Z,9288.00
2023-04-11T08:28:10.629Z,6200.00
2023-04-11T08:29:10.551Z,27296.00
2023-04-11T08:30:10.581Z,70048.00
2023-04-11T08:31:10.882Z,56448.00
2023-04-11T08:32:10.645Z,28160.00
2023-04-11T08:33:10.669Z,7884.00
2023-04-11T08:34:10.705Z,6632.00
2023-04-11T08:35:10.757Z,6888.00
2023-04-11T08:36:11.017Z,28768.00
2023-04-11T08:37:10.797Z,29280.00
2023-04-11T08:38:10.825Z,22816.00
2023-04-11T08:39:10.856Z,29792.00
2023-04-11T08:40:10.889Z,29344.00
2023-04-11T08:41:10.920Z,28640.00
2023-04-11T08:42:10.998Z,27552.00
2023-04-11T08:43:11.031Z,29184.00
2023-04-11T08:44:11.014Z,28512.00
2023-04-11T08:45:11.050Z,27168.00
2023-04-11T08:46:11.117Z,27616.00
2023-04-11T08:47:11.108Z,9144.00
2023-04-11T08:48:11.140Z,9568.00
2023-04-11T08:49:11.170Z,6076.00
2023-04-11T08:52:11.388Z,7516.00
2023-04-11T08:53:11.430Z,9548.00
2023-04-11T08:54:59.485Z,28512.00
2023-04-11T08:55:59.514Z,8864.00
2023-04-11T08:56:59.551Z,12308.00
2023-04-11T08:57:59.589Z,8476.00
2023-04-11T08:58:59.631Z,8484.00
2023-04-11T08:59:59.642Z,39040.00
2023-04-11T09:00:59.731Z,38592.00
2023-04-11T09:01:59.798Z,38688.00
2023-04-11T09:02:59.835Z,6140.00
2023-04-11T09:03:59.985Z,36128.00
2023-04-11T09:04:59.839Z,51200.00
2023-04-11T09:05:59.827Z,46560.00
2023-04-11T09:07:01.303Z,44640.00
2023-04-11T09:07:59.895Z,27712.00
2023-04-11T09:08:59.936Z,9456.00
2023-04-11T09:09:59.955Z,39776.00
2023-04-11T09:10:59.992Z,14552.00
2023-04-11T09:12:00.026Z,45888.00
2023-04-11T09:13:00.053Z,14312.00
2023-04-11T09:14:42.869Z,19744.00
2023-04-11T09:16:42.701Z,41568.00
2023-04-11T09:19:25.360Z,18464.00
2023-04-11T09:20:25.357Z,7940.00
2023-04-11T09:21:25.708Z,12372.00
2023-04-11T09:22:25.425Z,10516.00
2023-04-11T09:23:27.287Z,21184.00
2023-04-11T09:25:26.373Z,9380.00
2023-04-11T09:26:25.555Z,31392.00
2023-04-11T09:27:26.514Z,10284.00
2023-04-11T09:29:25.654Z,12232.00
2023-04-11T09:30:25.718Z,18496.00
2023-04-11T09:31:25.733Z,24864.00
2023-04-11T09:34:25.811Z,9980.00
2023-04-11T09:37:25.895Z,36000.00
2023-04-11T09:38:25.927Z,11396.00
2023-04-11T09:39:28.598Z,38432.00
2023-04-11T09:40:25.997Z,38112.00
2023-04-11T09:41:26.034Z,40096.00
2023-04-11T09:42:26.062Z,10736.00
2023-04-11T09:43:26.086Z,9848.00
2023-04-11T09:44:26.116Z,23136.00
2023-04-11T09:45:26.165Z,7996.00
2023-04-11T09:46:26.546Z,45568.00
2023-04-11T09:47:26.242Z,10128.00
2023-04-11T09:49:26.292Z,79232.00
2023-04-11T09:50:26.320Z,86432.00
2023-04-11T09:52:26.591Z,66688.00
2023-04-11T09:53:26.620Z,52160.00
2023-04-11T09:54:26.640Z,42624.00
2023-04-11T09:56:26.633Z,35040.00
2023-04-11T09:57:26.744Z,23392.00
2023-04-11T09:58:26.770Z,31392.00
2023-04-11T10:00:26.622Z,8600.00
2023-04-11T10:01:26.876Z,10280.00
2023-04-11T10:02:26.833Z,11912.00
2023-04-11T10:03:26.842Z,9572.00
2023-04-11T10:04:26.814Z,9592.00
2023-04-11T10:05:27.016Z,17632.00
2023-04-11T10:06:27.026Z,9708.00
2023-04-11T10:08:26.887Z,9692.00
2023-04-11T10:09:27.326Z,9916.00
2023-04-11T10:10:27.144Z,10972.00
2023-04-11T10:11:26.984Z,16704.00
2023-04-11T10:12:27.010Z,16512.00
2023-04-11T10:13:27.352Z,15212.00
2023-04-11T10:14:27.380Z,13168.00
2023-04-11T10:15:27.310Z,12200.00
2023-04-11T10:16:27.190Z,11936.00
2023-04-11T10:17:27.387Z,7124.00
2023-04-11T10:19:27.479Z,8972.00
2023-04-11T10:21:27.299Z,13480.00
2023-04-11T10:22:27.313Z,13448.00
2023-04-11T10:23:27.563Z,13656.00
2023-04-11T10:24:27.394Z,14416.00
2023-04-11T10:25:27.736Z,13824.00
2023-04-11T10:26:27.473Z,12656.00
2023-04-11T10:28:27.517Z,10956.00
2023-04-11T10:29:27.545Z,10528.00
2023-04-11T10:31:27.938Z,11552.00
2023-04-11T10:32:27.694Z,11440.00
2023-04-11T10:33:27.682Z,11580.00
2023-04-11T10:34:27.707Z,12508.00
2023-04-11T10:35:27.761Z,12604.00
2023-04-11T10:36:27.979Z,11208.00
2023-04-11T10:37:28.111Z,8956.00
2023-04-11T10:39:28.067Z,9036.00
2023-04-11T10:40:27.891Z,7896.00
2023-04-11T10:41:27.939Z,7208.00
2023-04-11T10:42:27.978Z,6288.00
2023-04-11T10:44:28.030Z,9256.00
2023-04-11T10:45:28.397Z,9112.00
2023-04-11T10:46:28.331Z,8448.00
2023-04-11T10:47:28.212Z,6492.00
2023-04-11T10:48:28.155Z,9532.00
2023-04-11T10:49:28.394Z,6948.00
2023-04-11T10:51:28.491Z,10460.00
2023-04-11T10:54:28.548Z,10616.00
2023-04-11T10:55:28.378Z,10836.00
2023-04-11T10:57:28.634Z,9584.00
2023-04-11T10:58:28.749Z,9212.00
2023-04-11T10:59:28.759Z,10684.00
2023-04-11T11:00:28.544Z,11132.00
2023-04-11T11:01:37.310Z,11364.00
2023-04-11T11:03:29.198Z,11068.00
2023-04-11T11:04:28.764Z,10784.00
2023-04-11T11:05:28.902Z,9508.00
2023-04-11T11:06:28.753Z,8424.00
2023-04-11T11:07:28.987Z,9324.00
2023-04-11T11:08:28.827Z,7708.00
2023-04-11T11:09:28.893Z,6460.00
2023-04-11T11:10:28.855Z,5600.00
2023-04-11T11:11:28.883Z,6248.00
2023-04-11T11:12:28.914Z,7680.00
2023-04-11T11:13:28.946Z,5976.00
2023-04-11T11:14:29.571Z,5764.00
2023-04-11T11:15:29.316Z,5544.00
2023-04-11T11:16:29.074Z,7376.00
2023-04-11T11:17:29.100Z,5976.00
2023-04-11T11:18:29.100Z,6108.00
2023-04-11T11:20:29.163Z,6572.00
2023-04-11T11:23:29.678Z,8480.00
2023-04-11T11:24:29.488Z,9296.00
2023-04-11T11:25:29.319Z,9460.00
2023-04-11T11:26:29.348Z,9760.00
2023-04-11T11:27:29.373Z,9616.00
2023-04-11T11:29:29.427Z,9456.00
2023-04-11T11:30:29.495Z,9152.00
2023-04-11T11:32:29.586Z,9272.00
2023-04-11T11:34:29.591Z,9040.00
2023-04-11T11:35:29.604Z,9116.00
2023-04-11T11:36:29.684Z,8688.00
2023-04-11T11:37:29.664Z,8380.00
2023-04-11T11:38:29.697Z,8032.00
2023-04-11T11:39:29.746Z,7800.00
2023-04-11T11:40:29.759Z,7992.00
2023-04-11T11:41:29.792Z,8344.00
2023-04-11T11:42:29.817Z,8416.00
2023-04-11T11:43:29.847Z,8848.00
2023-04-11T11:44:29.900Z,9212.00
2023-04-11T11:45:29.913Z,8884.00
2023-04-11T11:46:29.992Z,8492.00
2023-04-11T11:47:29.985Z,8244.00
2023-04-11T11:48:30.012Z,8548.00
2023-04-11T11:49:30.180Z,8856.00
2023-04-11T11:50:30.064Z,9260.00
2023-04-11T11:51:30.092Z,9432.00
2023-04-11T11:52:30.141Z,9492.00
2023-04-11T11:53:30.164Z,9620.00
2023-04-11T11:54:30.197Z,9480.00
2023-04-11T11:55:30.282Z,9488.00
2023-04-11T11:56:30.248Z,9504.00
2023-04-11T11:57:30.277Z,9516.00
2023-04-11T11:58:30.308Z,9428.00
2023-04-11T11:59:30.338Z,9704.00
2023-04-11T12:00:30.382Z,10076.00
2023-04-11T12:01:30.399Z,9976.00
2023-04-11T12:02:30.803Z,9412.00
2023-04-11T12:03:30.614Z,9000.00
2023-04-11T12:04:30.644Z,7888.00
2023-04-11T12:05:30.997Z,7472.00
2023-04-11T12:06:30.556Z,7604.00
2023-04-11T12:07:30.585Z,8216.00
2023-04-11T12:08:30.610Z,7088.00
2023-04-11T12:09:30.649Z,6596.00
2023-04-11T12:10:30.678Z,6608.00
2023-04-11T12:11:30.725Z,7956.00
2023-04-11T12:12:30.734Z,6716.00
2023-04-11T12:13:30.774Z,7620.00
2023-04-11T12:14:30.792Z,7296.00
2023-04-11T12:15:30.885Z,6396.00
2023-04-11T12:16:30.888Z,6724.00
2023-04-11T12:17:30.914Z,6612.00
2023-04-11T12:18:30.910Z,6128.00
2023-04-11T12:19:30.937Z,5920.00
2023-04-11T12:20:30.972Z,6552.00
2023-04-11T12:21:30.999Z,7324.00
2023-04-11T12:22:31.052Z,6356.00
2023-04-11T12:23:31.083Z,7952.00
2023-04-11T12:24:31.099Z,8112.00
2023-04-11T12:25:31.120Z,8360.00
2023-04-11T12:26:31.153Z,8956.00
2023-04-11T12:27:31.201Z,8196.00
2023-04-11T12:28:31.216Z,8112.00
2023-04-11T12:29:31.240Z,8200.00
2023-04-11T12:30:31.278Z,8460.00
2023-04-11T12:31:31.308Z,9520.00
2023-04-11T12:32:31.355Z,8516.00
2023-04-11T12:33:31.406Z,9280.00
2023-04-11T12:34:31.414Z,8960.00
2023-04-11T12:35:31.423Z,8792.00
2023-04-11T12:37:31.493Z,8216.00
2023-04-11T12:38:31.511Z,7468.00
2023-04-11T12:39:31.543Z,5588.00
2023-04-11T12:40:31.574Z,6212.00
2023-04-11T12:41:32.742Z,5352.00
2023-04-11T12:42:32.277Z,6336.00
2023-04-11T12:43:31.743Z,7224.00
2023-04-11T12:44:31.694Z,7620.00
2023-04-11T12:45:31.723Z,7760.00
2023-04-11T12:46:31.769Z,7656.00
2023-04-11T12:47:31.844Z,7928.00
2023-04-11T12:48:31.868Z,7784.00
2023-04-11T12:49:31.841Z,7440.00
2023-04-11T12:50:31.874Z,6944.00
2023-04-11T12:51:31.905Z,7068.00
2023-04-11T12:52:31.940Z,7708.00
2023-04-11T12:53:31.963Z,8244.00
2023-04-11T12:54:31.997Z,8728.00
2023-04-11T12:55:32.039Z,8940.00
2023-04-11T12:56:32.059Z,8956.00
2023-04-11T12:57:32.088Z,9084.00
2023-04-11T12:58:32.117Z,7700.00
2023-04-11T12:59:32.616Z,7780.00
2023-04-11T13:00:32.180Z,8636.00
2023-04-11T13:01:32.307Z,8624.00
2023-04-11T13:02:41.692Z,7472.00
2023-04-11T13:03:32.549Z,8364.00
2023-04-11T13:04:32.491Z,7664.00